sensor_id;sensor_type;location;lat;lon;timestamp;temperature;humidity
71297;SHT31;59082;50.658;4.608;2023-07-13T00:00:12;17.15;87.98
71297;SHT31;59082;50.658;4.608;2023-07-13T00:02:40;16.96;88.55
71297;SHT31;59082;50.658;4.608;2023-07-13T00:05:06;16.91;88.52
71297;SHT31;59082;50.658;4.608;2023-07-13T00:07:32;16.88;88.89
71297;SHT31;59082;50.658;4.608;2023-07-13T00:09:57;16.80;89.28
71297;SHT31;59082;50.658;4.608;2023-07-13T00:12:30;16.66;89.87
71297;SHT31;59082;50.658;4.608;2023-07-13T00:14:57;16.75;89.76
71297;SHT31;59082;50.658;4.608;2023-07-13T00:17:24;16.63;90.06
71297;SHT31;59082;50.658;4.608;2023-07-13T00:19:49;16.62;90.14
71297;SHT31;59082;50.658;4.608;2023-07-13T00:22:15;16.52;90.49
71297;SHT31;59082;50.658;4.608;2023-07-13T00:24:41;16.44;90.66
71297;SHT31;59082;50.658;4.608;2023-07-13T00:27:10;16.38;90.81
71297;SHT31;59082;50.658;4.608;2023-07-13T00:29:36;16.36;91.13
71297;SHT31;59082;50.658;4.608;2023-07-13T00:32:06;16.33;91.09
71297;SHT31;59082;50.658;4.608;2023-07-13T00:34:32;16.38;91.25
71297;SHT31;59082;50.658;4.608;2023-07-13T00:36:58;16.26;91.38
71297;SHT31;59082;50.658;4.608;2023-07-13T00:39:23;16.36;91.72
71297;SHT31;59082;50.658;4.608;2023-07-13T00:41:50;16.45;91.43
71297;SHT31;59082;50.658;4.608;2023-07-13T00:44:17;16.29;91.65
71297;SHT31;59082;50.658;4.608;2023-07-13T00:46:42;16.31;91.55
71297;SHT31;59082;50.658;4.608;2023-07-13T00:49:11;16.28;91.61
71297;SHT31;59082;50.658;4.608;2023-07-13T00:54:41;16.14;91.87
71297;SHT31;59082;50.658;4.608;2023-07-13T00:57:11;16.05;92.10
71297;SHT31;59082;50.658;4.608;2023-07-13T00:59:41;16.01;91.99
71297;SHT31;59082;50.658;4.608;2023-07-13T01:02:08;16.73;90.93
71297;SHT31;59082;50.658;4.608;2023-07-13T01:04:34;17.08;90.56
71297;SHT31;59082;50.658;4.608;2023-07-13T01:06:59;16.31;91.04
71297;SHT31;59082;50.658;4.608;2023-07-13T01:09:27;16.12;91.88
71297;SHT31;59082;50.658;4.608;2023-07-13T01:11:53;16.79;91.29
71297;SHT31;59082;50.658;4.608;2023-07-13T01:14:19;16.73;90.98
71297;SHT31;59082;50.658;4.608;2023-07-13T01:16:46;16.62;90.55
71297;SHT31;59082;50.658;4.608;2023-07-13T01:19:43;16.63;92.04
71297;SHT31;59082;50.658;4.608;2023-07-13T01:22:17;16.05;91.93
71297;SHT31;59082;50.658;4.608;2023-07-13T01:24:45;15.94;92.11
71297;SHT31;59082;50.658;4.608;2023-07-13T01:27:14;15.93;91.94
71297;SHT31;59082;50.658;4.608;2023-07-13T01:29:41;15.76;91.58
71297;SHT31;59082;50.658;4.608;2023-07-13T01:32:12;16.35;92.08
71297;SHT31;59082;50.658;4.608;2023-07-13T01:34:38;16.63;91.35
71297;SHT31;59082;50.658;4.608;2023-07-13T01:37:08;16.15;91.73
71297;SHT31;59082;50.658;4.608;2023-07-13T01:39:34;16.01;91.69
71297;SHT31;59082;50.658;4.608;2023-07-13T01:42:00;15.86;91.51
71297;SHT31;59082;50.658;4.608;2023-07-13T01:44:26;15.90;91.47
71297;SHT31;59082;50.658;4.608;2023-07-13T01:46:51;15.66;91.05
71297;SHT31;59082;50.658;4.608;2023-07-13T01:49:17;15.91;91.16
71297;SHT31;59082;50.658;4.608;2023-07-13T01:51:42;15.96;91.20
71297;SHT31;59082;50.658;4.608;2023-07-13T01:54:08;15.74;90.92
71297;SHT31;59082;50.658;4.608;2023-07-13T01:56:33;16.42;91.37
71297;SHT31;59082;50.658;4.608;2023-07-13T01:58:59;16.77;91.27
71297;SHT31;59082;50.658;4.608;2023-07-13T02:01:24;16.69;91.09
71297;SHT31;59082;50.658;4.608;2023-07-13T02:03:50;16.42;91.18
71297;SHT31;59082;50.658;4.608;2023-07-13T02:06:16;16.00;91.22
71297;SHT31;59082;50.658;4.608;2023-07-13T02:08:42;15.89;91.11
71297;SHT31;59082;50.658;4.608;2023-07-13T02:11:08;15.79;90.74
71297;SHT31;59082;50.658;4.608;2023-07-13T02:13:33;15.96;90.76
71297;SHT31;59082;50.658;4.608;2023-07-13T02:15:59;16.00;90.86
71297;SHT31;59082;50.658;4.608;2023-07-13T02:18:24;15.97;90.78
71297;SHT31;59082;50.658;4.608;2023-07-13T02:20:50;15.83;90.66
71297;SHT31;59082;50.658;4.608;2023-07-13T02:23:15;15.93;90.70
71297;SHT31;59082;50.658;4.608;2023-07-13T02:25:41;15.77;90.50
71297;SHT31;59082;50.658;4.608;2023-07-13T02:28:06;15.81;90.53
71297;SHT31;59082;50.658;4.608;2023-07-13T02:30:32;15.66;90.34
71297;SHT31;59082;50.658;4.608;2023-07-13T02:32:57;16.49;91.04
71297;SHT31;59082;50.658;4.608;2023-07-13T02:35:23;15.89;90.60
71297;SHT31;59082;50.658;4.608;2023-07-13T02:37:49;15.93;90.64
71297;SHT31;59082;50.658;4.608;2023-07-13T02:40:14;17.03;91.28
71297;SHT31;59082;50.658;4.608;2023-07-13T02:42:40;15.81;90.45
71297;SHT31;59082;50.658;4.608;2023-07-13T02:45:07;15.81;90.67
71297;SHT31;59082;50.658;4.608;2023-07-13T02:47:33;15.71;90.48
71297;SHT31;59082;50.658;4.608;2023-07-13T02:49:58;15.83;90.58
71297;SHT31;59082;50.658;4.608;2023-07-13T02:52:24;16.04;90.72
71297;SHT31;59082;50.658;4.608;2023-07-13T02:54:50;15.91;90.64
71297;SHT31;59082;50.658;4.608;2023-07-13T02:57:15;15.89;90.60
71297;SHT31;59082;50.658;4.608;2023-07-13T02:59:41;16.72;91.44
71297;SHT31;59082;50.658;4.608;2023-07-13T03:02:06;15.79;90.61
71297;SHT31;59082;50.658;4.608;2023-07-13T03:04:32;16.29;91.24
71297;SHT31;59082;50.658;4.608;2023-07-13T03:06:58;16.07;90.66
71297;SHT31;59082;50.658;4.608;2023-07-13T03:09:24;15.54;90.33
71297;SHT31;59082;50.658;4.608;2023-07-13T03:11:53;15.96;90.64
71297;SHT31;59082;50.658;4.608;2023-07-13T03:14:19;15.83;90.60
71297;SHT31;59082;50.658;4.608;2023-07-13T03:16:44;15.79;90.60
71297;SHT31;59082;50.658;4.608;2023-07-13T03:19:10;15.71;90.49
71297;SHT31;59082;50.658;4.608;2023-07-13T03:21:35;15.63;90.56
71297;SHT31;59082;50.658;4.608;2023-07-13T03:24:01;15.66;90.33
71297;SHT31;59082;50.658;4.608;2023-07-13T03:26:26;16.79;91.32
71297;SHT31;59082;50.658;4.608;2023-07-13T03:28:52;15.71;90.46
71297;SHT31;59082;50.658;4.608;2023-07-13T03:31:24;15.79;90.67
71297;SHT31;59082;50.658;4.608;2023-07-13T03:33:50;15.73;90.70
71297;SHT31;59082;50.658;4.608;2023-07-13T03:36:21;15.73;90.55
71297;SHT31;59082;50.658;4.608;2023-07-13T03:38:49;15.64;90.50
71297;SHT31;59082;50.658;4.608;2023-07-13T03:41:15;15.73;90.54
71297;SHT31;59082;50.658;4.608;2023-07-13T03:43:42;15.80;90.41
71297;SHT31;59082;50.658;4.608;2023-07-13T03:46:08;15.77;90.49
71297;SHT31;59082;50.658;4.608;2023-07-13T03:48:33;16.00;90.60
71297;SHT31;59082;50.658;4.608;2023-07-13T03:50:59;16.12;90.58
71297;SHT31;59082;50.658;4.608;2023-07-13T03:53:24;16.19;90.62
71297;SHT31;59082;50.658;4.608;2023-07-13T03:55:50;16.36;90.80
71297;SHT31;59082;50.658;4.608;2023-07-13T04:00:57;18.18;90.96
71297;SHT31;59082;50.658;4.608;2023-07-13T04:03:23;18.72;90.46
71297;SHT31;59082;50.658;4.608;2023-07-13T04:05:49;17.42;91.21
71297;SHT31;59082;50.658;4.608;2023-07-13T04:08:14;17.24;91.72
71297;SHT31;59082;50.658;4.608;2023-07-13T04:10:40;17.02;91.52
71297;SHT31;59082;50.658;4.608;2023-07-13T04:13:05;17.15;91.60
71297;SHT31;59082;50.658;4.608;2023-07-13T04:15:32;17.21;91.89
71297;SHT31;59082;50.658;4.608;2023-07-13T04:17:58;17.07;91.76
71297;SHT31;59082;50.658;4.608;2023-07-13T04:20:26;17.30;91.93
71297;SHT31;59082;50.658;4.608;2023-07-13T04:22:52;17.02;91.73
71297;SHT31;59082;50.658;4.608;2023-07-13T04:25:21;17.10;92.00
71297;SHT31;59082;50.658;4.608;2023-07-13T04:27:46;17.42;91.94
71297;SHT31;59082;50.658;4.608;2023-07-13T04:30:12;17.36;92.07
71297;SHT31;59082;50.658;4.608;2023-07-13T04:32:37;17.35;92.18
71297;SHT31;59082;50.658;4.608;2023-07-13T04:35:03;17.87;91.99
71297;SHT31;59082;50.658;4.608;2023-07-13T04:37:29;17.78;91.88
71297;SHT31;59082;50.658;4.608;2023-07-13T04:39:55;17.78;91.80
71297;SHT31;59082;50.658;4.608;2023-07-13T04:42:21;17.52;91.99
71297;SHT31;59082;50.658;4.608;2023-07-13T04:44:50;17.75;92.18
71297;SHT31;59082;50.658;4.608;2023-07-13T04:47:16;17.89;91.86
71297;SHT31;59082;50.658;4.608;2023-07-13T04:49:41;17.93;92.06
71297;SHT31;59082;50.658;4.608;2023-07-13T04:52:07;18.17;91.93
71297;SHT31;59082;50.658;4.608;2023-07-13T04:54:34;18.38;91.72
71297;SHT31;59082;50.658;4.608;2023-07-13T04:57:00;18.59;91.39
71297;SHT31;59082;50.658;4.608;2023-07-13T04:59:25;18.41;91.33
71297;SHT31;59082;50.658;4.608;2023-07-13T05:01:51;18.72;91.17
71297;SHT31;59082;50.658;4.608;2023-07-13T05:04:16;18.93;91.22
71297;SHT31;59082;50.658;4.608;2023-07-13T05:06:42;18.96;91.17
71297;SHT31;59082;50.658;4.608;2023-07-13T05:09:08;19.02;90.81
71297;SHT31;59082;50.658;4.608;2023-07-13T05:11:33;19.09;90.45
71297;SHT31;59082;50.658;4.608;2023-07-13T05:13:59;18.95;90.71
71297;SHT31;59082;50.658;4.608;2023-07-13T05:16:26;19.38;90.56
71297;SHT31;59082;50.658;4.608;2023-07-13T05:18:52;20.33;89.14
71297;SHT31;59082;50.658;4.608;2023-07-13T05:21:18;21.02;87.35
71297;SHT31;59082;50.658;4.608;2023-07-13T05:23:43;19.98;89.00
71297;SHT31;59082;50.658;4.608;2023-07-13T05:26:10;19.77;89.31
71297;SHT31;59082;50.658;4.608;2023-07-13T05:28:36;19.61;89.15
71297;SHT31;59082;50.658;4.608;2023-07-13T05:31:02;19.78;89.23
71297;SHT31;59082;50.658;4.608;2023-07-13T05:33:28;21.42;86.89
71297;SHT31;59082;50.658;4.608;2023-07-13T05:35:54;21.11;86.56
71297;SHT31;59082;50.658;4.608;2023-07-13T05:38:19;20.75;86.96
71297;SHT31;59082;50.658;4.608;2023-07-13T05:40:46;21.05;87.38
71297;SHT31;59082;50.658;4.608;2023-07-13T05:43:11;21.53;85.96
71297;SHT31;59082;50.658;4.608;2023-07-13T05:45:38;21.35;86.41
71297;SHT31;59082;50.658;4.608;2023-07-13T05:48:03;21.67;86.02
71297;SHT31;59082;50.658;4.608;2023-07-13T05:50:29;21.05;86.82
71297;SHT31;59082;50.658;4.608;2023-07-13T05:52:54;20.98;86.48
71297;SHT31;59082;50.658;4.608;2023-07-13T05:55:20;21.56;86.04
71297;SHT31;59082;50.658;4.608;2023-07-13T05:57:46;21.78;85.01
71297;SHT31;59082;50.658;4.608;2023-07-13T06:00:12;20.29;86.98
71297;SHT31;59082;50.658;4.608;2023-07-13T06:02:38;20.65;87.62
71297;SHT31;59082;50.658;4.608;2023-07-13T06:05:04;21.43;84.88
71297;SHT31;59082;50.658;4.608;2023-07-13T06:07:29;21.47;86.19
71297;SHT31;59082;50.658;4.608;2023-07-13T06:09:55;21.70;86.06
71297;SHT31;59082;50.658;4.608;2023-07-13T06:12:21;21.08;86.17
71297;SHT31;59082;50.658;4.608;2023-07-13T06:14:46;21.88;85.55
71297;SHT31;59082;50.658;4.608;2023-07-13T06:17:12;21.40;86.07
71297;SHT31;59082;50.658;4.608;2023-07-13T06:19:38;21.47;85.80
71297;SHT31;59082;50.658;4.608;2023-07-13T06:22:04;23.00;83.47
71297;SHT31;59082;50.658;4.608;2023-07-13T06:24:30;23.21;82.81
71297;SHT31;59082;50.658;4.608;2023-07-13T06:26:59;22.67;82.91
71297;SHT31;59082;50.658;4.608;2023-07-13T06:29:28;21.96;84.78
71297;SHT31;59082;50.658;4.608;2023-07-13T06:32:00;21.69;85.27
71297;SHT31;59082;50.658;4.608;2023-07-13T06:34:26;21.66;86.58
71297;SHT31;59082;50.658;4.608;2023-07-13T06:36:52;21.78;85.27
71297;SHT31;59082;50.658;4.608;2023-07-13T06:39:18;22.14;84.73
71297;SHT31;59082;50.658;4.608;2023-07-13T06:41:43;22.04;84.97
71297;SHT31;59082;50.658;4.608;2023-07-13T06:44:21;21.74;85.03
71297;SHT31;59082;50.658;4.608;2023-07-13T06:47:07;22.26;84.53
71297;SHT31;59082;50.658;4.608;2023-07-13T06:49:48;23.30;82.61
71297;SHT31;59082;50.658;4.608;2023-07-13T06:52:27;23.55;82.37
71297;SHT31;59082;50.658;4.608;2023-07-13T06:57:57;24.72;80.84
71297;SHT31;59082;50.658;4.608;2023-07-13T07:00:27;25.09;79.42
71297;SHT31;59082;50.658;4.608;2023-07-13T07:02:55;25.47;79.11
71297;SHT31;59082;50.658;4.608;2023-07-13T07:05:21;25.15;79.44
71297;SHT31;59082;50.658;4.608;2023-07-13T07:07:50;24.99;77.84
71297;SHT31;59082;50.658;4.608;2023-07-13T07:10:16;24.55;79.82
71297;SHT31;59082;50.658;4.608;2023-07-13T07:13:08;24.30;80.49
71297;SHT31;59082;50.658;4.608;2023-07-13T07:15:38;23.47;81.14
71297;SHT31;59082;50.658;4.608;2023-07-13T07:18:03;25.24;78.33
71297;SHT31;59082;50.658;4.608;2023-07-13T07:20:29;25.10;78.12
71297;SHT31;59082;50.658;4.608;2023-07-13T07:22:58;24.28;78.04
71297;SHT31;59082;50.658;4.608;2023-07-13T07:25:24;25.03;78.19
71297;SHT31;59082;50.658;4.608;2023-07-13T07:27:49;24.48;78.36
71297;SHT31;59082;50.658;4.608;2023-07-13T07:30:15;24.02;79.94
71297;SHT31;59082;50.658;4.608;2023-07-13T07:32:41;24.00;80.03
71297;SHT31;59082;50.658;4.608;2023-07-13T07:35:07;25.50;78.36
71297;SHT31;59082;50.658;4.608;2023-07-13T07:37:33;24.24;79.56
71297;SHT31;59082;50.658;4.608;2023-07-13T07:39:58;24.00;80.04
71297;SHT31;59082;50.658;4.608;2023-07-13T07:42:24;25.80;77.98
71297;SHT31;59082;50.658;4.608;2023-07-13T07:44:53;25.99;77.44
71297;SHT31;59082;50.658;4.608;2023-07-13T07:47:18;26.28;76.55
71297;SHT31;59082;50.658;4.608;2023-07-13T07:49:44;26.09;76.80
71297;SHT31;59082;50.658;4.608;2023-07-13T07:52:10;25.88;76.56
71297;SHT31;59082;50.658;4.608;2023-07-13T07:54:36;26.35;75.86
71297;SHT31;59082;50.658;4.608;2023-07-13T07:57:01;25.44;77.74
71297;SHT31;59082;50.658;4.608;2023-07-13T07:59:27;25.30;77.65
71297;SHT31;59082;50.658;4.608;2023-07-13T08:01:53;24.24;78.23
71297;SHT31;59082;50.658;4.608;2023-07-13T08:04:22;24.52;78.89
71297;SHT31;59082;50.658;4.608;2023-07-13T08:06:47;25.64;76.52
71297;SHT31;59082;50.658;4.608;2023-07-13T08:09:13;26.23;76.62
71297;SHT31;59082;50.658;4.608;2023-07-13T08:11:38;26.90;75.64
71297;SHT31;59082;50.658;4.608;2023-07-13T08:14:04;27.19;74.71
71297;SHT31;59082;50.658;4.608;2023-07-13T08:16:29;26.65;75.46
71297;SHT31;59082;50.658;4.608;2023-07-13T08:19:06;26.06;76.25
71297;SHT31;59082;50.658;4.608;2023-07-13T08:21:32;26.06;75.91
71297;SHT31;59082;50.658;4.608;2023-07-13T08:24:11;25.13;77.64
71297;SHT31;59082;50.658;4.608;2023-07-13T08:26:37;24.64;78.77
71297;SHT31;59082;50.658;4.608;2023-07-13T08:29:02;24.79;79.48
71297;SHT31;59082;50.658;4.608;2023-07-13T08:31:28;25.22;78.71
71297;SHT31;59082;50.658;4.608;2023-07-13T08:33:54;25.36;78.51
71297;SHT31;59082;50.658;4.608;2023-07-13T08:36:22;25.02;78.10
71297;SHT31;59082;50.658;4.608;2023-07-13T08:38:48;24.41;78.76
71297;SHT31;59082;50.658;4.608;2023-07-13T08:41:18;25.37;77.50
71297;SHT31;59082;50.658;4.608;2023-07-13T08:43:49;24.86;77.58
71297;SHT31;59082;50.658;4.608;2023-07-13T08:46:33;25.43;77.02
71297;SHT31;59082;50.658;4.608;2023-07-13T08:49:15;25.82;77.56
71297;SHT31;59082;50.658;4.608;2023-07-13T08:54:29;25.03;77.51
71297;SHT31;59082;50.658;4.608;2023-07-13T08:56:57;26.47;75.99
71297;SHT31;59082;50.658;4.608;2023-07-13T08:59:39;27.09;75.53
71297;SHT31;59082;50.658;4.608;2023-07-13T09:02:20;26.44;74.04
71297;SHT31;59082;50.658;4.608;2023-07-13T09:05:00;27.16;73.48
71297;SHT31;59082;50.658;4.608;2023-07-13T09:10:59;29.10;70.97
71297;SHT31;59082;50.658;4.608;2023-07-13T09:16:42;28.76;70.83
71297;SHT31;59082;50.658;4.608;2023-07-13T09:19:23;29.68;70.36
71297;SHT31;59082;50.658;4.608;2023-07-13T09:22:07;29.76;70.02
71297;SHT31;59082;50.658;4.608;2023-07-13T09:25:05;29.79;71.05
71297;SHT31;59082;50.658;4.608;2023-07-13T09:27:39;30.20;69.61
71297;SHT31;59082;50.658;4.608;2023-07-13T09:33:09;29.50;70.33
71297;SHT31;59082;50.658;4.608;2023-07-13T09:35:38;29.37;71.17
71297;SHT31;59082;50.658;4.608;2023-07-13T09:38:14;30.81;69.73
71297;SHT31;59082;50.658;4.608;2023-07-13T09:40:53;30.92;68.23
71297;SHT31;59082;50.658;4.608;2023-07-13T09:43:30;31.92;66.60
71297;SHT31;59082;50.658;4.608;2023-07-13T09:49:09;28.62;71.61
71297;SHT31;59082;50.658;4.608;2023-07-13T09:51:37;30.60;69.04
71297;SHT31;59082;50.658;4.608;2023-07-13T09:54:28;36.62;61.69
71297;SHT31;59082;50.658;4.608;2023-07-13T09:56:58;34.33;62.21
71297;SHT31;59082;50.658;4.608;2023-07-13T09:59:33;36.18;60.45
71297;SHT31;59082;50.658;4.608;2023-07-13T10:05:27;37.42;60.53
71297;SHT31;59082;50.658;4.608;2023-07-13T10:07:55;38.31;57.37
71297;SHT31;59082;50.658;4.608;2023-07-13T10:10:22;35.15;62.36
71297;SHT31;59082;50.658;4.608;2023-07-13T10:12:49;33.21;62.80
71297;SHT31;59082;50.658;4.608;2023-07-13T10:15:18;36.91;60.30
71297;SHT31;59082;50.658;4.608;2023-07-13T10:17:55;36.31;59.66
71297;SHT31;59082;50.658;4.608;2023-07-13T10:20:23;32.06;64.13
71297;SHT31;59082;50.658;4.608;2023-07-13T10:23:15;31.78;63.97
71297;SHT31;59082;50.658;4.608;2023-07-13T10:25:45;33.35;62.33
71297;SHT31;59082;50.658;4.608;2023-07-13T10:28:38;33.45;61.47
71297;SHT31;59082;50.658;4.608;2023-07-13T10:31:06;33.59;64.54
71297;SHT31;59082;50.658;4.608;2023-07-13T10:33:35;37.78;58.86
71297;SHT31;59082;50.658;4.608;2023-07-13T10:36:28;31.43;64.38
71297;SHT31;59082;50.658;4.608;2023-07-13T10:38:59;28.05;69.45
71297;SHT31;59082;50.658;4.608;2023-07-13T10:41:38;35.16;63.47
71297;SHT31;59082;50.658;4.608;2023-07-13T10:44:24;36.98;59.40
71297;SHT31;59082;50.658;4.608;2023-07-13T10:47:23;39.27;56.53
71297;SHT31;59082;50.658;4.608;2023-07-13T10:49:58;42.20;54.71
71297;SHT31;59082;50.658;4.608;2023-07-13T10:58:31;37.68;56.39
71297;SHT31;59082;50.658;4.608;2023-07-13T11:01:11;38.67;55.31
71297;SHT31;59082;50.658;4.608;2023-07-13T11:09:49;33.88;60.61
71297;SHT31;59082;50.658;4.608;2023-07-13T11:17:37;38.23;56.01
71297;SHT31;59082;50.658;4.608;2023-07-13T11:25:25;41.85;52.11
71297;SHT31;59082;50.658;4.608;2023-07-13T11:30:37;39.67;52.16
71297;SHT31;59082;50.658;4.608;2023-07-13T11:35:53;46.09;50.43
71297;SHT31;59082;50.658;4.608;2023-07-13T11:38:28;45.85;50.13
71297;SHT31;59082;50.658;4.608;2023-07-13T11:40:55;43.54;50.76
71297;SHT31;59082;50.658;4.608;2023-07-13T11:43:23;38.78;54.52
71297;SHT31;59082;50.658;4.608;2023-07-13T11:45:50;42.38;50.76
71297;SHT31;59082;50.658;4.608;2023-07-13T11:48:21;41.23;52.56
71297;SHT31;59082;50.658;4.608;2023-07-13T11:51:00;43.13;50.08
71297;SHT31;59082;50.658;4.608;2023-07-13T11:53:39;39.92;52.18
71297;SHT31;59082;50.658;4.608;2023-07-13T11:56:06;42.33;50.68
71297;SHT31;59082;50.658;4.608;2023-07-13T11:58:32;45.85;49.41
71297;SHT31;59082;50.658;4.608;2023-07-13T12:01:02;44.32;49.92
71297;SHT31;59082;50.658;4.608;2023-07-13T12:03:30;44.28;48.28
71297;SHT31;59082;50.658;4.608;2023-07-13T12:06:05;42.68;50.46
71297;SHT31;59082;50.658;4.608;2023-07-13T12:08:32;41.11;50.38
71297;SHT31;59082;50.658;4.608;2023-07-13T12:11:09;45.14;50.12
71297;SHT31;59082;50.658;4.608;2023-07-13T12:13:38;44.02;48.58
71297;SHT31;59082;50.658;4.608;2023-07-13T12:16:16;44.31;48.84
71297;SHT31;59082;50.658;4.608;2023-07-13T12:18:43;43.96;49.76
71297;SHT31;59082;50.658;4.608;2023-07-13T12:21:16;36.95;54.38
71297;SHT31;59082;50.658;4.608;2023-07-13T12:23:44;34.07;57.27
71297;SHT31;59082;50.658;4.608;2023-07-13T12:26:11;33.58;58.37
71297;SHT31;59082;50.658;4.608;2023-07-13T12:28:43;35.87;57.03
71297;SHT31;59082;50.658;4.608;2023-07-13T12:34:12;35.98;56.05
71297;SHT31;59082;50.658;4.608;2023-07-13T12:36:48;40.42;53.61
71297;SHT31;59082;50.658;4.608;2023-07-13T12:39:27;38.27;54.51
71297;SHT31;59082;50.658;4.608;2023-07-13T12:42:31;38.57;53.61
71297;SHT31;59082;50.658;4.608;2023-07-13T12:45:01;34.10;57.63
71297;SHT31;59082;50.658;4.608;2023-07-13T12:47:31;34.94;56.50
71297;SHT31;59082;50.658;4.608;2023-07-13T12:50:16;40.64;51.95
71297;SHT31;59082;50.658;4.608;2023-07-13T12:52:42;42.34;50.72
71297;SHT31;59082;50.658;4.608;2023-07-13T12:55:16;44.76;47.61
71297;SHT31;59082;50.658;4.608;2023-07-13T12:57:54;37.58;53.09
71297;SHT31;59082;50.658;4.608;2023-07-13T13:00:33;34.13;55.32
71297;SHT31;59082;50.658;4.608;2023-07-13T13:03:16;36.60;54.21
71297;SHT31;59082;50.658;4.608;2023-07-13T13:05:44;37.96;51.70
71297;SHT31;59082;50.658;4.608;2023-07-13T13:08:13;33.34;56.93
71297;SHT31;59082;50.658;4.608;2023-07-13T13:10:39;31.40;56.93
71297;SHT31;59082;50.658;4.608;2023-07-13T13:13:04;31.43;59.29
71297;SHT31;59082;50.658;4.608;2023-07-13T13:15:30;30.16;60.72
71297;SHT31;59082;50.658;4.608;2023-07-13T13:17:56;30.30;61.09
71297;SHT31;59082;50.658;4.608;2023-07-13T13:20:24;29.61;61.60
71297;SHT31;59082;50.658;4.608;2023-07-13T13:22:51;30.28;61.83
71297;SHT31;59082;50.658;4.608;2023-07-13T13:25:18;30.23;61.87
71297;SHT31;59082;50.658;4.608;2023-07-13T13:27:44;31.03;61.41
71297;SHT31;59082;50.658;4.608;2023-07-13T13:30:15;30.02;61.59
71297;SHT31;59082;50.658;4.608;2023-07-13T13:32:45;30.08;61.79
71297;SHT31;59082;50.658;4.608;2023-07-13T13:35:17;30.20;61.92
71297;SHT31;59082;50.658;4.608;2023-07-13T13:37:44;32.36;59.91
71297;SHT31;59082;50.658;4.608;2023-07-13T13:40:18;32.04;59.42
71297;SHT31;59082;50.658;4.608;2023-07-13T13:42:44;32.63;59.68
71297;SHT31;59082;50.658;4.608;2023-07-13T13:45:10;31.46;60.98
71297;SHT31;59082;50.658;4.608;2023-07-13T13:47:38;30.72;61.41
71297;SHT31;59082;50.658;4.608;2023-07-13T13:50:23;29.96;62.73
71297;SHT31;59082;50.658;4.608;2023-07-13T13:52:49;30.89;61.99
71297;SHT31;59082;50.658;4.608;2023-07-13T13:55:17;30.40;62.78
71297;SHT31;59082;50.658;4.608;2023-07-13T13:57:45;29.71;63.03
71297;SHT31;59082;50.658;4.608;2023-07-13T14:00:12;30.96;62.96
71297;SHT31;59082;50.658;4.608;2023-07-13T14:02:41;34.41;58.84
71297;SHT31;59082;50.658;4.608;2023-07-13T14:05:15;33.54;59.03
71297;SHT31;59082;50.658;4.608;2023-07-13T14:07:42;35.36;57.91
71297;SHT31;59082;50.658;4.608;2023-07-13T14:10:17;39.18;54.03
71297;SHT31;59082;50.658;4.608;2023-07-13T14:12:51;36.52;55.75
71297;SHT31;59082;50.658;4.608;2023-07-13T14:15:22;34.51;57.45
71297;SHT31;59082;50.658;4.608;2023-07-13T14:17:48;37.34;55.27
71297;SHT31;59082;50.658;4.608;2023-07-13T14:20:16;38.21;53.87
71297;SHT31;59082;50.658;4.608;2023-07-13T14:22:43;41.38;51.64
71297;SHT31;59082;50.658;4.608;2023-07-13T14:25:13;45.17;48.64
71297;SHT31;59082;50.658;4.608;2023-07-13T14:27:40;46.61;47.78
71297;SHT31;59082;50.658;4.608;2023-07-13T14:30:13;45.56;47.84
71297;SHT31;59082;50.658;4.608;2023-07-13T14:32:40;44.60;47.59
71297;SHT31;59082;50.658;4.608;2023-07-13T14:35:07;38.62;52.68
71297;SHT31;59082;50.658;4.608;2023-07-13T14:37:33;34.12;57.11
71297;SHT31;59082;50.658;4.608;2023-07-13T14:39:59;37.75;54.98
71297;SHT31;59082;50.658;4.608;2023-07-13T14:42:25;39.56;52.72
71297;SHT31;59082;50.658;4.608;2023-07-13T14:44:50;37.51;52.51
71297;SHT31;59082;50.658;4.608;2023-07-13T14:47:17;33.44;57.12
71297;SHT31;59082;50.658;4.608;2023-07-13T14:49:43;37.89;55.16
71297;SHT31;59082;50.658;4.608;2023-07-13T14:52:20;35.81;55.35
71297;SHT31;59082;50.658;4.608;2023-07-13T14:54:46;35.30;55.79
71297;SHT31;59082;50.658;4.608;2023-07-13T14:57:14;33.22;58.73
71297;SHT31;59082;50.658;4.608;2023-07-13T14:59:40;34.21;58.70
71297;SHT31;59082;50.658;4.608;2023-07-13T15:02:42;39.75;53.57
71297;SHT31;59082;50.658;4.608;2023-07-13T15:05:17;44.22;50.42
71297;SHT31;59082;50.658;4.608;2023-07-13T15:07:43;44.58;48.17
71297;SHT31;59082;50.658;4.608;2023-07-13T15:10:18;43.74;48.55
71297;SHT31;59082;50.658;4.608;2023-07-13T15:12:43;43.54;48.34
71297;SHT31;59082;50.658;4.608;2023-07-13T15:15:09;39.42;51.24
71297;SHT31;59082;50.658;4.608;2023-07-13T15:22:44;34.23;56.36
71297;SHT31;59082;50.658;4.608;2023-07-13T15:25:18;32.86;58.47
71297;SHT31;59082;50.658;4.608;2023-07-13T15:27:45;37.06;55.15
71297;SHT31;59082;50.658;4.608;2023-07-13T15:30:12;36.63;53.88
71297;SHT31;59082;50.658;4.608;2023-07-13T15:32:38;32.55;58.27
71297;SHT31;59082;50.658;4.608;2023-07-13T15:35:21;36.47;55.17
71297;SHT31;59082;50.658;4.608;2023-07-13T15:37:48;38.61;54.72
71297;SHT31;59082;50.658;4.608;2023-07-13T15:40:14;34.31;56.99
71297;SHT31;59082;50.658;4.608;2023-07-13T15:42:41;34.77;57.13
71297;SHT31;59082;50.658;4.608;2023-07-13T15:45:21;35.99;55.52
71297;SHT31;59082;50.658;4.608;2023-07-13T15:47:47;35.65;55.70
71297;SHT31;59082;50.658;4.608;2023-07-13T15:50:18;33.28;59.78
71297;SHT31;59082;50.658;4.608;2023-07-13T15:52:46;36.43;56.79
71297;SHT31;59082;50.658;4.608;2023-07-13T15:55:13;33.65;59.20
71297;SHT31;59082;50.658;4.608;2023-07-13T15:57:48;32.01;61.00
71297;SHT31;59082;50.658;4.608;2023-07-13T16:00:22;31.00;62.65
71297;SHT31;59082;50.658;4.608;2023-07-13T16:02:49;30.30;63.73
71297;SHT31;59082;50.658;4.608;2023-07-13T16:05:15;30.84;62.82
71297;SHT31;59082;50.658;4.608;2023-07-13T16:07:43;33.59;60.55
71297;SHT31;59082;50.658;4.608;2023-07-13T16:10:15;31.33;61.79
71297;SHT31;59082;50.658;4.608;2023-07-13T16:12:41;30.75;63.21
71297;SHT31;59082;50.658;4.608;2023-07-13T16:15:18;30.48;63.16
71297;SHT31;59082;50.658;4.608;2023-07-13T16:17:45;30.45;62.35
71297;SHT31;59082;50.658;4.608;2023-07-13T16:20:12;29.98;64.14
71297;SHT31;59082;50.658;4.608;2023-07-13T16:22:39;30.10;63.55
71297;SHT31;59082;50.658;4.608;2023-07-13T16:25:25;30.17;64.02
71297;SHT31;59082;50.658;4.608;2023-07-13T16:27:53;29.65;64.51
71297;SHT31;59082;50.658;4.608;2023-07-13T16:30:23;29.65;65.20
71297;SHT31;59082;50.658;4.608;2023-07-13T16:33:01;29.08;65.26
71297;SHT31;59082;50.658;4.608;2023-07-13T16:35:36;29.47;65.36
71297;SHT31;59082;50.658;4.608;2023-07-13T16:38:04;29.59;64.99
71297;SHT31;59082;50.658;4.608;2023-07-13T16:40:34;29.17;65.82
71297;SHT31;59082;50.658;4.608;2023-07-13T16:43:00;28.63;66.61
71297;SHT31;59082;50.658;4.608;2023-07-13T16:45:31;28.18;66.46